sensor_id;sensor_type;location;lat;lon;timestamp;pressure;altitude;pressure_sealevel;temperature;humidity
5053;BME280;2545;50.892;5.740;2023-07-13T00:00:20;55978.75;;;-142.21;62.14
5053;BME280;2545;50.892;5.740;2023-07-13T00:02:47;55980.72;;;-142.21;61.75
5053;BME280;2545;50.892;5.740;2023-07-13T00:05:12;55974.84;;;-142.21;61.97
5053;BME280;2545;50.892;5.740;2023-07-13T00:07:38;55959.16;;;-142.21;62.13
5053;BME280;2545;50.892;5.740;2023-07-13T00:10:04;55965.03;;;-142.21;63.01
5053;BME280;2545;50.892;5.740;2023-07-13T00:12:32;55978.75;;;-142.21;63.25
5053;BME280;2545;50.892;5.740;2023-07-13T00:14:59;55990.53;;;-142.21;63.68
5053;BME280;2545;50.892;5.740;2023-07-13T00:17:26;55953.25;;;-142.21;64.31
5053;BME280;2545;50.892;5.740;2023-07-13T00:19:52;56006.22;;;-142.21;64.47
5053;BME280;2545;50.892;5.740;2023-07-13T00:22:18;56002.28;;;-142.21;64.23
5053;BME280;2545;50.892;5.740;2023-07-13T00:24:44;56002.28;;;-142.21;64.77
5053;BME280;2545;50.892;5.740;2023-07-13T00:27:10;56008.16;;;-142.21;65.04
5053;BME280;2545;50.892;5.740;2023-07-13T00:29:36;55992.47;;;-142.21;65.25
5053;BME280;2545;50.892;5.740;2023-07-13T00:32:03;55998.38;;;-142.21;65.39
5053;BME280;2545;50.892;5.740;2023-07-13T00:34:31;56002.28;;;-142.21;65.09
5053;BME280;2545;50.892;5.740;2023-07-13T00:36:56;55994.44;;;-142.21;65.53
5053;BME280;2545;50.892;5.740;2023-07-13T00:39:22;56014.06;;;-142.21;65.77
5053;BME280;2545;50.892;5.740;2023-07-13T00:41:48;55994.44;;;-142.21;66.45
5053;BME280;2545;50.892;5.740;2023-07-13T00:44:14;55951.31;;;-142.21;65.95
5053;BME280;2545;50.892;5.740;2023-07-13T00:46:40;56016.00;;;-142.21;66.05
5053;BME280;2545;50.892;5.740;2023-07-13T00:49:08;55961.09;;;-142.21;65.23
5053;BME280;2545;50.892;5.740;2023-07-13T00:51:56;55963.06;;;-142.21;65.09
5053;BME280;2545;50.892;5.740;2023-07-13T00:54:32;55986.59;;;-142.21;64.57
5053;BME280;2545;50.892;5.740;2023-07-13T00:57:01;55994.44;;;-142.21;64.90
5053;BME280;2545;50.892;5.740;2023-07-13T00:59:28;56037.56;;;-142.21;64.57
5053;BME280;2545;50.892;5.740;2023-07-13T01:01:54;56019.94;;;-142.21;64.98
5053;BME280;2545;50.892;5.740;2023-07-13T01:04:20;56008.16;;;-142.21;65.60
5053;BME280;2545;50.892;5.740;2023-07-13T01:06:46;55988.56;;;-142.21;65.27
5053;BME280;2545;50.892;5.740;2023-07-13T01:09:12;55967.00;;;-142.21;65.66
5053;BME280;2545;50.892;5.740;2023-07-13T01:11:40;56004.25;;;-142.21;66.26
5053;BME280;2545;50.892;5.740;2023-07-13T01:14:06;55974.84;;;-142.21;66.73
5053;BME280;2545;50.892;5.740;2023-07-13T01:16:34;56008.16;;;-142.21;66.94
5053;BME280;2545;50.892;5.740;2023-07-13T01:19:01;56002.28;;;-142.21;67.42
5053;BME280;2545;50.892;5.740;2023-07-13T01:21:28;55986.59;;;-142.21;67.90
5053;BME280;2545;50.892;5.740;2023-07-13T01:23:55;55980.72;;;-142.21;68.12
5053;BME280;2545;50.892;5.740;2023-07-13T01:26:20;55988.56;;;-142.21;68.54
5053;BME280;2545;50.892;5.740;2023-07-13T01:28:46;55996.41;;;-142.21;68.86
5053;BME280;2545;50.892;5.740;2023-07-13T01:31:12;55986.59;;;-142.21;68.83
5053;BME280;2545;50.892;5.740;2023-07-13T01:33:39;56000.31;;;-142.21;68.71
5053;BME280;2545;50.892;5.740;2023-07-13T01:36:07;56010.13;;;-142.21;68.33
5053;BME280;2545;50.892;5.740;2023-07-13T01:38:33;56010.13;;;-142.21;68.13
5053;BME280;2545;50.892;5.740;2023-07-13T01:40:59;56014.06;;;-142.21;68.22
5053;BME280;2545;50.892;5.740;2023-07-13T01:43:24;55990.53;;;-142.21;68.00
5053;BME280;2545;50.892;5.740;2023-07-13T01:45:50;56016.00;;;-142.21;68.34
5053;BME280;2545;50.892;5.740;2023-07-13T01:48:15;55976.78;;;-142.21;68.97
5053;BME280;2545;50.892;5.740;2023-07-13T01:50:41;55984.63;;;-142.21;69.00
5053;BME280;2545;50.892;5.740;2023-07-13T01:53:07;55949.34;;;-142.21;69.25
5053;BME280;2545;50.892;5.740;2023-07-13T01:55:33;55998.38;;;-142.21;69.71
5053;BME280;2545;50.892;5.740;2023-07-13T01:57:59;55994.44;;;-142.21;69.83
5053;BME280;2545;50.892;5.740;2023-07-13T02:00:24;55988.56;;;-142.21;70.21
5053;BME280;2545;50.892;5.740;2023-07-13T02:02:50;56019.94;;;-142.21;70.52
5053;BME280;2545;50.892;5.740;2023-07-13T02:05:15;55965.03;;;-142.21;70.68
5053;BME280;2545;50.892;5.740;2023-07-13T02:07:41;56006.22;;;-142.21;71.17
5053;BME280;2545;50.892;5.740;2023-07-13T02:10:07;56025.81;;;-142.21;71.67
5053;BME280;2545;50.892;5.740;2023-07-13T02:12:33;56006.22;;;-142.21;71.76
5053;BME280;2545;50.892;5.740;2023-07-13T02:14:59;56014.06;;;-142.21;72.41
5053;BME280;2545;50.892;5.740;2023-07-13T02:17:26;56006.22;;;-142.21;73.17
5053;BME280;2545;50.892;5.740;2023-07-13T02:19:51;55984.63;;;-142.21;73.70
5053;BME280;2545;50.892;5.740;2023-07-13T02:22:16;55986.59;;;-142.21;74.17
5053;BME280;2545;50.892;5.740;2023-07-13T02:24:42;55967.00;;;-142.21;74.41
5053;BME280;2545;50.892;5.740;2023-07-13T02:27:07;56025.81;;;-142.21;74.63
5053;BME280;2545;50.892;5.740;2023-07-13T02:29:33;56000.31;;;-142.21;74.41
5053;BME280;2545;50.892;5.740;2023-07-13T02:31:58;56006.22;;;-142.21;74.88
5053;BME280;2545;50.892;5.740;2023-07-13T02:34:24;56008.16;;;-142.21;75.04
5053;BME280;2545;50.892;5.740;2023-07-13T02:36:49;56016.00;;;-142.21;75.32
5053;BME280;2545;50.892;5.740;2023-07-13T02:39:15;56029.72;;;-142.21;75.78
5053;BME280;2545;50.892;5.740;2023-07-13T02:41:40;55998.38;;;-142.21;75.64
5053;BME280;2545;50.892;5.740;2023-07-13T02:44:05;56010.13;;;-142.21;76.60
5053;BME280;2545;50.892;5.740;2023-07-13T02:46:34;56004.25;;;-142.21;76.75
5053;BME280;2545;50.892;5.740;2023-07-13T02:49:00;56039.53;;;-142.21;76.76
5053;BME280;2545;50.892;5.740;2023-07-13T02:51:26;55974.84;;;-142.21;77.06
5053;BME280;2545;50.892;5.740;2023-07-13T02:53:51;56019.94;;;-142.21;76.83
5053;BME280;2545;50.892;5.740;2023-07-13T02:56:19;56002.28;;;-142.21;77.24
5053;BME280;2545;50.892;5.740;2023-07-13T02:58:44;56012.09;;;-142.21;77.66
5053;BME280;2545;50.892;5.740;2023-07-13T03:01:10;56010.13;;;-142.21;77.58
5053;BME280;2545;50.892;5.740;2023-07-13T03:03:37;55998.38;;;-142.21;77.87
5053;BME280;2545;50.892;5.740;2023-07-13T03:06:03;55992.47;;;-142.21;78.64
5053;BME280;2545;50.892;5.740;2023-07-13T03:08:30;55996.41;;;-142.21;78.50
5053;BME280;2545;50.892;5.740;2023-07-13T03:11:09;56019.94;;;-142.21;78.79
5053;BME280;2545;50.892;5.740;2023-07-13T03:13:37;56045.41;;;-142.21;79.68
5053;BME280;2545;50.892;5.740;2023-07-13T03:16:03;56023.84;;;-142.21;79.91
5053;BME280;2545;50.892;5.740;2023-07-13T03:18:28;55994.44;;;-142.21;79.80
5053;BME280;2545;50.892;5.740;2023-07-13T03:20:54;56017.97;;;-142.21;80.36
5053;BME280;2545;50.892;5.740;2023-07-13T03:23:21;56014.06;;;-142.21;80.31
5053;BME280;2545;50.892;5.740;2023-07-13T03:25:47;56000.31;;;-142.21;81.13
5053;BME280;2545;50.892;5.740;2023-07-13T03:28:13;56025.81;;;-142.21;81.19
5053;BME280;2545;50.892;5.740;2023-07-13T03:30:39;56010.13;;;-142.21;80.99
5053;BME280;2545;50.892;5.740;2023-07-13T03:33:05;56002.28;;;-142.21;81.88
5053;BME280;2545;50.892;5.740;2023-07-13T03:35:30;55996.41;;;-142.21;82.19
5053;BME280;2545;50.892;5.740;2023-07-13T03:37:58;56002.28;;;-142.21;82.06
5053;BME280;2545;50.892;5.740;2023-07-13T03:40:24;56033.66;;;-142.21;82.45
5053;BME280;2545;50.892;5.740;2023-07-13T03:42:51;56014.06;;;-142.21;83.06
5053;BME280;2545;50.892;5.740;2023-07-13T03:45:17;56019.94;;;-142.21;83.04
5053;BME280;2545;50.892;5.740;2023-07-13T03:47:42;56006.22;;;-142.21;83.34
5053;BME280;2545;50.892;5.740;2023-07-13T03:50:08;56017.97;;;-142.21;83.09
5053;BME280;2545;50.892;5.740;2023-07-13T03:52:34;56006.22;;;-142.21;83.19
5053;BME280;2545;50.892;5.740;2023-07-13T03:54:59;55984.63;;;-142.21;83.50
5053;BME280;2545;50.892;5.740;2023-07-13T03:57:25;55994.44;;;-142.21;83.13
5053;BME280;2545;50.892;5.740;2023-07-13T03:59:51;56029.72;;;-142.21;82.98
5053;BME280;2545;50.892;5.740;2023-07-13T04:02:16;55988.56;;;-142.21;82.67
5053;BME280;2545;50.892;5.740;2023-07-13T04:04:43;56033.66;;;-142.21;82.47
5053;BME280;2545;50.892;5.740;2023-07-13T04:07:08;56031.69;;;-142.21;82.82
5053;BME280;2545;50.892;5.740;2023-07-13T04:09:34;56010.13;;;-142.21;83.09
5053;BME280;2545;50.892;5.740;2023-07-13T04:11:59;56039.53;;;-142.21;82.71
5053;BME280;2545;50.892;5.740;2023-07-13T04:14:25;56004.25;;;-142.21;82.75
5053;BME280;2545;50.892;5.740;2023-07-13T04:16:50;55996.41;;;-142.21;82.28
5053;BME280;2545;50.892;5.740;2023-07-13T04:19:16;56017.97;;;-142.21;81.65
5053;BME280;2545;50.892;5.740;2023-07-13T04:21:41;55998.38;;;-142.21;81.45
5053;BME280;2545;50.892;5.740;2023-07-13T04:24:07;56029.72;;;-142.21;81.35
5053;BME280;2545;50.892;5.740;2023-07-13T04:26:33;56033.66;;;-142.21;81.55
5053;BME280;2545;50.892;5.740;2023-07-13T04:29:01;55984.63;;;-142.21;81.15
5053;BME280;2545;50.892;5.740;2023-07-13T04:31:28;56055.22;;;-142.21;80.76
5053;BME280;2545;50.892;5.740;2023-07-13T04:33:53;56043.47;;;-142.21;80.05
5053;BME280;2545;50.892;5.740;2023-07-13T04:36:19;56017.97;;;-142.21;80.62
5053;BME280;2545;50.892;5.740;2023-07-13T04:38:44;55992.47;;;-142.21;80.44
5053;BME280;2545;50.892;5.740;2023-07-13T04:41:10;55992.47;;;-142.21;80.69
5053;BME280;2545;50.892;5.740;2023-07-13T04:43:36;56061.09;;;-142.21;80.55
5053;BME280;2545;50.892;5.740;2023-07-13T04:46:07;56029.72;;;-142.21;80.21
5053;BME280;2545;50.892;5.740;2023-07-13T04:48:32;55998.38;;;-142.21;80.73
5053;BME280;2545;50.892;5.740;2023-07-13T04:50:58;55986.59;;;-142.21;79.98
5053;BME280;2545;50.892;5.740;2023-07-13T04:53:25;56043.47;;;-142.21;79.09
5053;BME280;2545;50.892;5.740;2023-07-13T04:55:50;55998.38;;;-142.21;79.25
5053;BME280;2545;50.892;5.740;2023-07-13T04:58:16;56002.28;;;-142.21;78.79
5053;BME280;2545;50.892;5.740;2023-07-13T05:00:41;56002.28;;;-142.21;78.60
5053;BME280;2545;50.892;5.740;2023-07-13T05:03:07;55984.63;;;-142.21;78.86
5053;BME280;2545;50.892;5.740;2023-07-13T05:05:32;56008.16;;;-142.21;78.98
5053;BME280;2545;50.892;5.740;2023-07-13T05:07:58;55968.94;;;-142.21;79.27
5053;BME280;2545;50.892;5.740;2023-07-13T05:10:24;55965.03;;;-142.21;80.89
5053;BME280;2545;50.892;5.740;2023-07-13T05:12:50;56041.50;;;-142.21;81.12
5053;BME280;2545;50.892;5.740;2023-07-13T05:15:16;55988.56;;;-142.21;80.39
5053;BME280;2545;50.892;5.740;2023-07-13T05:17:46;56017.97;;;-142.21;79.97
5053;BME280;2545;50.892;5.740;2023-07-13T05:20:11;55945.41;;;-142.21;80.33
5053;BME280;2545;50.892;5.740;2023-07-13T05:22:37;56019.94;;;-142.21;78.64
5053;BME280;2545;50.892;5.740;2023-07-13T05:25:06;56000.31;;;-142.21;79.13
5053;BME280;2545;50.892;5.740;2023-07-13T05:27:32;55978.75;;;-142.21;80.35
5053;BME280;2545;50.892;5.740;2023-07-13T05:29:58;55982.69;;;-142.21;81.69
5053;BME280;2545;50.892;5.740;2023-07-13T05:32:23;56041.50;;;-142.21;82.45
5053;BME280;2545;50.892;5.740;2023-07-13T05:34:48;56000.31;;;-142.21;82.06
5053;BME280;2545;50.892;5.740;2023-07-13T05:37:14;56027.78;;;-142.21;82.54
5053;BME280;2545;50.892;5.740;2023-07-13T05:39:39;56002.28;;;-142.21;82.24
5053;BME280;2545;50.892;5.740;2023-07-13T05:42:05;56010.13;;;-142.21;83.38
5053;BME280;2545;50.892;5.740;2023-07-13T05:44:31;56035.63;;;-142.21;81.50
5053;BME280;2545;50.892;5.740;2023-07-13T05:46:56;56021.88;;;-142.21;83.57
5053;BME280;2545;50.892;5.740;2023-07-13T05:49:22;55992.47;;;-142.21;83.75
5053;BME280;2545;50.892;5.740;2023-07-13T05:51:48;55959.16;;;-142.21;83.05
5053;BME280;2545;50.892;5.740;2023-07-13T05:54:13;56045.41;;;-142.21;82.01
5053;BME280;2545;50.892;5.740;2023-07-13T05:56:39;56006.22;;;-142.21;81.50
5053;BME280;2545;50.892;5.740;2023-07-13T05:59:04;56002.28;;;-142.21;81.54
5053;BME280;2545;50.892;5.740;2023-07-13T06:01:30;55998.38;;;-142.21;81.64
5053;BME280;2545;50.892;5.740;2023-07-13T06:03:56;56012.09;;;-142.21;80.95
5053;BME280;2545;50.892;5.740;2023-07-13T06:06:21;55978.75;;;-142.21;82.48
5053;BME280;2545;50.892;5.740;2023-07-13T06:08:47;56033.66;;;-142.21;82.31
5053;BME280;2545;50.892;5.740;2023-07-13T06:13:39;56021.88;;;-142.21;82.91
5053;BME280;2545;50.892;5.740;2023-07-13T06:16:05;56006.22;;;-142.21;83.24
5053;BME280;2545;50.892;5.740;2023-07-13T06:18:32;56025.81;;;-142.21;82.45
5053;BME280;2545;50.892;5.740;2023-07-13T06:20:58;56008.16;;;-142.21;82.24
5053;BME280;2545;50.892;5.740;2023-07-13T06:23:24;55998.38;;;-142.21;81.35
5053;BME280;2545;50.892;5.740;2023-07-13T06:25:49;55984.63;;;-142.21;81.19
5053;BME280;2545;50.892;5.740;2023-07-13T06:28:15;56002.28;;;-142.21;81.06
5053;BME280;2545;50.892;5.740;2023-07-13T06:30:40;55996.41;;;-142.21;80.02
5053;BME280;2545;50.892;5.740;2023-07-13T06:33:06;56006.22;;;-142.21;80.55
5053;BME280;2545;50.892;5.740;2023-07-13T06:35:31;55919.94;;;-142.21;79.25
5053;BME280;2545;50.892;5.740;2023-07-13T06:37:57;55992.47;;;-142.21;79.82
5053;BME280;2545;50.892;5.740;2023-07-13T06:40:22;56023.84;;;-142.21;79.09
5053;BME280;2545;50.892;5.740;2023-07-13T06:42:48;55994.44;;;-142.21;77.95
5053;BME280;2545;50.892;5.740;2023-07-13T06:45:13;56004.25;;;-142.21;78.82
5053;BME280;2545;50.892;5.740;2023-07-13T06:47:39;56002.28;;;-142.21;80.42
5053;BME280;2545;50.892;5.740;2023-07-13T06:50:05;55951.31;;;-142.21;79.55
5053;BME280;2545;50.892;5.740;2023-07-13T06:52:30;55974.84;;;-142.21;79.62
5053;BME280;2545;50.892;5.740;2023-07-13T06:54:56;56004.25;;;-142.21;79.04
5053;BME280;2545;50.892;5.740;2023-07-13T06:57:21;55959.16;;;-142.21;78.80
5053;BME280;2545;50.892;5.740;2023-07-13T06:59:47;55988.56;;;-142.21;79.50
5053;BME280;2545;50.892;5.740;2023-07-13T07:02:12;55974.84;;;-142.21;78.17
5053;BME280;2545;50.892;5.740;2023-07-13T07:04:37;56004.25;;;-142.21;78.54
5053;BME280;2545;50.892;5.740;2023-07-13T07:07:03;56014.06;;;-142.21;78.35
5053;BME280;2545;50.892;5.740;2023-07-13T07:09:29;56023.84;;;-142.21;78.31
5053;BME280;2545;50.892;5.740;2023-07-13T07:11:56;55976.78;;;-142.21;77.37
5053;BME280;2545;50.892;5.740;2023-07-13T07:14:22;55982.69;;;-142.21;77.35
5053;BME280;2545;50.892;5.740;2023-07-13T07:16:49;55986.59;;;-142.21;77.99
5053;BME280;2545;50.892;5.740;2023-07-13T07:19:15;55994.44;;;-142.21;77.02
5053;BME280;2545;50.892;5.740;2023-07-13T07:21:41;55976.78;;;-142.21;76.23
5053;BME280;2545;50.892;5.740;2023-07-13T07:24:06;55998.38;;;-142.21;75.36
5053;BME280;2545;50.892;5.740;2023-07-13T07:26:32;56010.13;;;-142.21;74.36
5053;BME280;2545;50.892;5.740;2023-07-13T07:28:58;56012.09;;;-142.21;76.24
5053;BME280;2545;50.892;5.740;2023-07-13T07:31:23;56000.31;;;-142.21;76.67
5053;BME280;2545;50.892;5.740;2023-07-13T07:33:49;56019.94;;;-142.21;77.26
5053;BME280;2545;50.892;5.740;2023-07-13T07:36:15;56006.22;;;-142.21;77.72
5053;BME280;2545;50.892;5.740;2023-07-13T07:38:42;55990.53;;;-142.21;76.84
5053;BME280;2545;50.892;5.740;2023-07-13T07:41:07;55972.88;;;-142.21;76.58
5053;BME280;2545;50.892;5.740;2023-07-13T07:43:32;55982.69;;;-142.21;76.64
5053;BME280;2545;50.892;5.740;2023-07-13T07:45:58;55998.38;;;-142.21;75.64
5053;BME280;2545;50.892;5.740;2023-07-13T07:48:24;56002.28;;;-142.21;75.74
5053;BME280;2545;50.892;5.740;2023-07-13T07:50:49;56023.84;;;-142.21;74.45
5053;BME280;2545;50.892;5.740;2023-07-13T07:53:15;55994.44;;;-142.21;73.23
5053;BME280;2545;50.892;5.740;2023-07-13T07:55:40;55984.63;;;-142.21;74.27
5053;BME280;2545;50.892;5.740;2023-07-13T07:58:06;55984.63;;;-142.21;74.06
5053;BME280;2545;50.892;5.740;2023-07-13T08:00:32;55994.44;;;-142.21;73.45
5053;BME280;2545;50.892;5.740;2023-07-13T08:02:58;55947.38;;;-142.21;74.54
5053;BME280;2545;50.892;5.740;2023-07-13T08:05:25;55992.47;;;-142.21;73.31
5053;BME280;2545;50.892;5.740;2023-07-13T08:07:51;55955.22;;;-142.21;72.55
5053;BME280;2545;50.892;5.740;2023-07-13T08:10:16;55992.47;;;-142.21;74.36
5053;BME280;2545;50.892;5.740;2023-07-13T08:12:42;55955.22;;;-142.21;73.95
5053;BME280;2545;50.892;5.740;2023-07-13T08:15:11;55978.75;;;-142.21;74.00
5053;BME280;2545;50.892;5.740;2023-07-13T08:17:37;56031.69;;;-142.21;75.05
5053;BME280;2545;50.892;5.740;2023-07-13T08:20:03;56002.28;;;-142.21;75.68
5053;BME280;2545;50.892;5.740;2023-07-13T08:22:29;55963.06;;;-142.21;75.31
5053;BME280;2545;50.892;5.740;2023-07-13T08:24:54;56014.06;;;-142.21;73.65
5053;BME280;2545;50.892;5.740;2023-07-13T08:27:23;56025.81;;;-142.21;73.04
5053;BME280;2545;50.892;5.740;2023-07-13T08:29:49;56012.09;;;-142.21;72.26
5053;BME280;2545;50.892;5.740;2023-07-13T08:32:14;55982.69;;;-142.21;70.80
5053;BME280;2545;50.892;5.740;2023-07-13T08:34:40;55986.59;;;-142.21;68.92
5053;BME280;2545;50.892;5.740;2023-07-13T08:37:06;55957.19;;;-142.21;67.55
5053;BME280;2545;50.892;5.740;2023-07-13T08:39:32;55994.44;;;-142.21;67.17
5053;BME280;2545;50.892;5.740;2023-07-13T08:42:01;55953.25;;;-142.21;64.97
5053;BME280;2545;50.892;5.740;2023-07-13T08:47:12;55947.38;;;-142.21;64.41
5053;BME280;2545;50.892;5.740;2023-07-13T08:49:39;55974.84;;;-142.21;65.12
5053;BME280;2545;50.892;5.740;2023-07-13T08:52:24;55961.09;;;-142.21;65.98
5053;BME280;2545;50.892;5.740;2023-07-13T08:54:55;55978.75;;;-142.21;64.34
5053;BME280;2545;50.892;5.740;2023-07-13T08:57:27;55943.47;;;-142.21;63.84
5053;BME280;2545;50.892;5.740;2023-07-13T08:59:56;55965.03;;;-142.21;64.86
5053;BME280;2545;50.892;5.740;2023-07-13T09:05:13;55990.53;;;-142.21;62.10
5053;BME280;2545;50.892;5.740;2023-07-13T09:07:49;55939.53;;;-142.21;62.46
5053;BME280;2545;50.892;5.740;2023-07-13T09:10:46;55963.06;;;-142.21;61.38
5053;BME280;2545;50.892;5.740;2023-07-13T09:13:22;55990.53;;;-142.21;60.66
5053;BME280;2545;50.892;5.740;2023-07-13T09:15:50;55978.75;;;-142.21;60.51
5053;BME280;2545;50.892;5.740;2023-07-13T09:18:30;56002.28;;;-142.21;60.76
5053;BME280;2545;50.892;5.740;2023-07-13T09:21:15;56004.25;;;-142.21;59.00
5053;BME280;2545;50.892;5.740;2023-07-13T09:23:42;55949.34;;;-142.21;57.32
5053;BME280;2545;50.892;5.740;2023-07-13T09:26:28;55967.00;;;-142.21;57.34
5053;BME280;2545;50.892;5.740;2023-07-13T09:28:59;55959.16;;;-142.21;59.38
5053;BME280;2545;50.892;5.740;2023-07-13T09:31:33;55959.16;;;-142.21;59.84
5053;BME280;2545;50.892;5.740;2023-07-13T09:34:00;55941.50;;;-142.21;58.81
5053;BME280;2545;50.892;5.740;2023-07-13T09:36:29;55910.13;;;-142.21;58.60
5053;BME280;2545;50.892;5.740;2023-07-13T09:44:30;55953.25;;;-142.21;56.38
5053;BME280;2545;50.892;5.740;2023-07-13T09:46:57;55935.63;;;-142.21;55.48
5053;BME280;2545;50.892;5.740;2023-07-13T09:49:27;55939.53;;;-142.21;55.97
5053;BME280;2545;50.892;5.740;2023-07-13T09:52:04;55933.66;;;-142.21;54.46
5053;BME280;2545;50.892;5.740;2023-07-13T09:54:33;55957.19;;;-142.21;54.51
5053;BME280;2545;50.892;5.740;2023-07-13T09:57:00;55939.53;;;-142.21;55.04
5053;BME280;2545;50.892;5.740;2023-07-13T09:59:32;55941.50;;;-142.21;54.90
5053;BME280;2545;50.892;5.740;2023-07-13T10:01:58;55951.31;;;-142.21;56.04
5053;BME280;2545;50.892;5.740;2023-07-13T10:04:41;55980.72;;;-142.21;56.19
5053;BME280;2545;50.892;5.740;2023-07-13T10:07:11;55916.00;;;-142.21;55.16
5053;BME280;2545;50.892;5.740;2023-07-13T10:09:38;55935.63;;;-142.21;53.32
5053;BME280;2545;50.892;5.740;2023-07-13T10:12:04;55937.56;;;-142.21;52.66
5053;BME280;2545;50.892;5.740;2023-07-13T10:14:38;55935.63;;;-142.21;52.23
5053;BME280;2545;50.892;5.740;2023-07-13T10:17:05;55939.53;;;-142.21;52.11
5053;BME280;2545;50.892;5.740;2023-07-13T10:19:35;55902.28;;;-142.21;50.96
5053;BME280;2545;50.892;5.740;2023-07-13T10:22:02;55927.78;;;-142.21;51.10
5053;BME280;2545;50.892;5.740;2023-07-13T10:24:36;55912.09;;;-142.21;50.18
5053;BME280;2545;50.892;5.740;2023-07-13T10:30:17;55927.78;;;-142.21;49.08
5053;BME280;2545;50.892;5.740;2023-07-13T10:32:45;55912.09;;;-142.21;48.05
5053;BME280;2545;50.892;5.740;2023-07-13T10:35:13;55900.31;;;-142.21;47.55
5053;BME280;2545;50.892;5.740;2023-07-13T10:40:14;55906.22;;;-142.21;50.25
5053;BME280;2545;50.892;5.740;2023-07-13T10:42:45;55943.47;;;-142.21;51.52
5053;BME280;2545;50.892;5.740;2023-07-13T10:45:17;55896.41;;;-142.21;52.10
5053;BME280;2545;50.892;5.740;2023-07-13T10:47:44;55916.00;;;-142.21;51.96
5053;BME280;2545;50.892;5.740;2023-07-13T10:50:17;55904.25;;;-142.21;49.71
5053;BME280;2545;50.892;5.740;2023-07-13T10:52:49;55957.19;;;-142.21;45.61
5053;BME280;2545;50.892;5.740;2023-07-13T10:58:01;55880.72;;;-142.21;43.00
5053;BME280;2545;50.892;5.740;2023-07-13T11:00:30;55853.28;;;-142.21;42.23
5053;BME280;2545;50.892;5.740;2023-07-13T11:02:57;55892.47;;;-142.21;42.61
5053;BME280;2545;50.892;5.740;2023-07-13T11:05:29;55902.28;;;-142.21;42.01
5053;BME280;2545;50.892;5.740;2023-07-13T11:10:55;55896.41;;;-142.21;39.64
5053;BME280;2545;50.892;5.740;2023-07-13T11:16:45;55874.84;;;-142.21;41.20
5053;BME280;2545;50.892;5.740;2023-07-13T11:22:22;55923.84;;;-142.21;39.76
5053;BME280;2545;50.892;5.740;2023-07-13T11:25:00;55857.19;;;-142.21;37.77
5053;BME280;2545;50.892;5.740;2023-07-13T11:27:44;55837.59;;;-142.21;36.60
5053;BME280;2545;50.892;5.740;2023-07-13T11:30:32;55845.44;;;-142.21;38.43
5053;BME280;2545;50.892;5.740;2023-07-13T11:36:18;55863.06;;;-142.21;37.27
5053;BME280;2545;50.892;5.740;2023-07-13T11:38:55;55884.63;;;-142.21;40.24
5053;BME280;2545;50.892;5.740;2023-07-13T11:41:35;55927.78;;;-142.21;42.42
5053;BME280;2545;50.892;5.740;2023-07-13T11:44:17;55872.88;;;-142.21;41.65
5053;BME280;2545;50.892;5.740;2023-07-13T11:46:59;55935.63;;;-142.21;44.12
5053;BME280;2545;50.892;5.740;2023-07-13T11:49:29;55919.94;;;-142.21;42.75
5053;BME280;2545;50.892;5.740;2023-07-13T11:51:55;55910.13;;;-142.21;42.53
5053;BME280;2545;50.892;5.740;2023-07-13T11:54:31;55941.50;;;-142.21;45.15
5053;BME280;2545;50.892;5.740;2023-07-13T11:57:01;55896.41;;;-142.21;43.52
5053;BME280;2545;50.892;5.740;2023-07-13T11:59:32;55919.94;;;-142.21;43.89
5053;BME280;2545;50.892;5.740;2023-07-13T12:01:58;55892.47;;;-142.21;41.65
5053;BME280;2545;50.892;5.740;2023-07-13T12:04:28;55937.56;;;-142.21;41.42
5053;BME280;2545;50.892;5.740;2023-07-13T12:07:15;55904.25;;;-142.21;40.58
5053;BME280;2545;50.892;5.740;2023-07-13T12:09:42;55868.94;;;-142.21;38.59
5053;BME280;2545;50.892;5.740;2023-07-13T12:12:12;55849.34;;;-142.21;39.56
5053;BME280;2545;50.892;5.740;2023-07-13T12:14:39;55880.72;;;-142.21;37.74
5053;BME280;2545;50.892;5.740;2023-07-13T12:17:11;55868.94;;;-142.21;37.75
5053;BME280;2545;50.892;5.740;2023-07-13T12:19:38;55882.69;;;-142.21;38.51
5053;BME280;2545;50.892;5.740;2023-07-13T12:22:03;55823.84;;;-142.21;36.09
5053;BME280;2545;50.892;5.740;2023-07-13T12:24:29;55845.44;;;-142.21;34.92
5053;BME280;2545;50.892;5.740;2023-07-13T12:27:00;55890.53;;;-142.21;36.95
5053;BME280;2545;50.892;5.740;2023-07-13T12:29:26;55896.41;;;-142.21;39.85
5053;BME280;2545;50.892;5.740;2023-07-13T12:31:52;55890.53;;;-142.21;37.91
5053;BME280;2545;50.892;5.740;2023-07-13T12:34:22;55865.03;;;-142.21;36.60
5053;BME280;2545;50.892;5.740;2023-07-13T12:37:02;55847.38;;;-142.21;36.36
5053;BME280;2545;50.892;5.740;2023-07-13T12:39:36;55845.44;;;-142.21;35.42
5053;BME280;2545;50.892;5.740;2023-07-13T12:42:22;55859.16;;;-142.21;36.50
5053;BME280;2545;50.892;5.740;2023-07-13T12:44:49;55843.47;;;-142.21;36.15
5053;BME280;2545;50.892;5.740;2023-07-13T12:47:15;55816.00;;;-142.21;35.50
5053;BME280;2545;50.892;5.740;2023-07-13T12:49:49;55868.94;;;-142.21;36.48
5053;BME280;2545;50.892;5.740;2023-07-13T12:52:29;55798.38;;;-142.21;35.78
5053;BME280;2545;50.892;5.740;2023-07-13T12:55:04;55835.63;;;-142.21;35.04
5053;BME280;2545;50.892;5.740;2023-07-13T12:57:30;55857.19;;;-142.21;36.00
5053;BME280;2545;50.892;5.740;2023-07-13T12:59:55;55847.38;;;-142.21;36.10
5053;BME280;2545;50.892;5.740;2023-07-13T13:02:30;55839.53;;;-142.21;34.74
5053;BME280;2545;50.892;5.740;2023-07-13T13:04:58;55821.91;;;-142.21;34.48
5053;BME280;2545;50.892;5.740;2023-07-13T13:07:24;55845.44;;;-142.21;33.77
5053;BME280;2545;50.892;5.740;2023-07-13T13:09:50;55855.22;;;-142.21;35.70
5053;BME280;2545;50.892;5.740;2023-07-13T13:12:17;55872.88;;;-142.21;34.48
5053;BME280;2545;50.892;5.740;2023-07-13T13:14:43;55849.34;;;-142.21;33.37
5053;BME280;2545;50.892;5.740;2023-07-13T13:17:28;55814.06;;;-142.21;32.40
5053;BME280;2545;50.892;5.740;2023-07-13T13:19:54;55845.44;;;-142.21;34.76
5053;BME280;2545;50.892;5.740;2023-07-13T13:22:20;55865.03;;;-142.21;34.59
5053;BME280;2545;50.892;5.740;2023-07-13T13:24:46;55861.09;;;-142.21;33.72
5053;BME280;2545;50.892;5.740;2023-07-13T13:27:21;55855.22;;;-142.21;34.63
5053;BME280;2545;50.892;5.740;2023-07-13T13:29:49;55857.19;;;-142.21;35.47
5053;BME280;2545;50.892;5.740;2023-07-13T13:32:17;55865.03;;;-142.21;35.62
5053;BME280;2545;50.892;5.740;2023-07-13T13:34:44;55849.34;;;-142.21;35.32
5053;BME280;2545;50.892;5.740;2023-07-13T13:37:18;55868.94;;;-142.21;35.45